createdAt,value
2022-10-20T00:01:18.494Z,7.57
2022-10-20T00:03:46.577Z,9.90
2022-10-20T00:06:15.340Z,7.82
2022-10-20T00:08:43.223Z,7.90
2022-10-20T00:11:11.145Z,8.30
2022-10-20T00:13:38.838Z,7.78
2022-10-20T00:16:06.350Z,7.53
2022-10-20T00:18:33.919Z,8.73
2022-10-20T00:21:01.243Z,7.88
2022-10-20T00:23:28.538Z,7.82
2022-10-20T00:26:04.846Z,7.95
2022-10-20T00:28:32.087Z,7.43
2022-10-20T00:30:59.359Z,8.02
2022-10-20T00:33:26.760Z,7.13
2022-10-20T00:35:54.073Z,8.25
2022-10-20T00:38:21.475Z,8.45
2022-10-20T00:40:48.724Z,8.75
2022-10-20T00:43:17.222Z,7.90
2022-10-20T00:45:45.887Z,7.47
2022-10-20T00:48:15.449Z,7.47
2022-10-20T00:50:44.420Z,7.72
2022-10-20T00:53:11.971Z,8.32
2022-10-20T00:55:41.662Z,8.40
2022-10-20T01:00:38.270Z,8.57
2022-10-20T01:03:07.074Z,8.73
2022-10-20T01:05:34.668Z,8.88
2022-10-20T01:08:01.927Z,7.80
2022-10-20T01:10:32.017Z,8.18
2022-10-20T01:13:22.031Z,9.32
2022-10-20T01:16:01.244Z,8.13
2022-10-20T01:18:44.032Z,7.75
2022-10-20T01:21:28.337Z,8.25
2022-10-20T01:24:24.872Z,9.43
2022-10-20T01:27:12.482Z,8.27
2022-10-20T01:29:55.062Z,8.60
2022-10-20T01:32:30.275Z,9.23
2022-10-20T01:35:18.542Z,8.98
2022-10-20T01:37:50.383Z,8.90
2022-10-20T01:40:21.762Z,8.50
2022-10-20T01:42:50.780Z,7.75
2022-10-20T01:45:19.077Z,8.27
2022-10-20T01:47:47.806Z,9.20
2022-10-20T01:50:15.741Z,8.90
2022-10-20T01:52:43.075Z,8.60
2022-10-20T01:55:12.704Z,9.10
2022-10-20T01:57:39.919Z,9.15
2022-10-20T02:00:08.907Z,9.90
2022-10-20T02:02:39.403Z,9.23
2022-10-20T02:05:25.788Z,8.48
2022-10-20T02:07:55.125Z,11.45
2022-10-20T02:10:25.206Z,9.25
2022-10-20T02:12:54.851Z,10.05
2022-10-20T02:17:52.732Z,9.75
2022-10-20T02:20:20.410Z,11.35
2022-10-20T02:22:48.524Z,9.38
2022-10-20T02:25:16.034Z,9.45
2022-10-20T02:27:47.010Z,9.13
2022-10-20T02:30:18.271Z,9.07
2022-10-20T02:32:49.643Z,9.50
2022-10-20T02:35:21.624Z,10.85
2022-10-20T02:37:48.985Z,10.52
2022-10-20T02:40:19.542Z,10.40
2022-10-20T02:42:46.979Z,11.77
2022-10-20T02:45:15.853Z,9.18
2022-10-20T02:47:43.152Z,11.60
2022-10-20T02:50:10.598Z,10.95
2022-10-20T02:52:38.344Z,11.40
2022-10-20T02:55:06.393Z,11.45
2022-10-20T02:57:33.945Z,11.15
2022-10-20T03:00:02.490Z,11.15
2022-10-20T03:02:29.780Z,11.25
2022-10-20T03:04:56.988Z,12.93
2022-10-20T03:07:24.356Z,10.40
2022-10-20T03:09:51.656Z,12.00
2022-10-20T03:12:18.989Z,11.68
2022-10-20T03:14:46.292Z,12.77
2022-10-20T03:17:13.587Z,12.32
2022-10-20T03:19:41.404Z,12.30
2022-10-20T03:22:11.060Z,12.90
2022-10-20T03:27:05.715Z,12.10
2022-10-20T03:29:33.029Z,14.05
2022-10-20T03:32:00.321Z,13.45
2022-10-20T03:34:27.632Z,12.35
2022-10-20T03:36:54.971Z,13.05
2022-10-20T03:39:22.320Z,12.55
2022-10-20T03:41:49.686Z,14.10
2022-10-20T03:44:17.020Z,13.13
2022-10-20T03:46:44.316Z,15.02
2022-10-20T03:49:11.585Z,15.18
2022-10-20T03:51:39.171Z,13.52
2022-10-20T03:54:06.495Z,17.23
2022-10-20T03:56:33.813Z,13.68
2022-10-20T03:59:01.167Z,15.35
2022-10-20T04:01:31.067Z,14.70
2022-10-20T04:03:58.531Z,15.02
2022-10-20T04:06:25.851Z,13.75
2022-10-20T04:08:53.144Z,13.68
2022-10-20T04:11:20.554Z,15.48
2022-10-20T04:13:47.865Z,16.15
2022-10-20T04:16:15.236Z,14.57
2022-10-20T04:18:42.521Z,16.27
2022-10-20T04:21:09.846Z,15.13
2022-10-20T04:23:37.108Z,16.75
2022-10-20T04:26:14.825Z,16.40
2022-10-20T04:28:42.255Z,15.50
2022-10-20T04:31:09.862Z,16.10
2022-10-20T04:33:37.381Z,16.48
2022-10-20T04:36:09.541Z,16.63
2022-10-20T04:38:36.935Z,17.00
2022-10-20T04:41:04.961Z,17.70
2022-10-20T04:43:35.376Z,15.13
2022-10-20T04:46:07.130Z,18.77
2022-10-20T04:48:36.565Z,14.65
2022-10-20T04:51:05.041Z,16.83
2022-10-20T04:53:32.449Z,16.48
2022-10-20T04:55:59.973Z,15.07
2022-10-20T04:58:27.337Z,16.55
2022-10-20T05:00:54.901Z,16.10
2022-10-20T05:03:22.209Z,15.68
2022-10-20T05:05:49.681Z,16.13
2022-10-20T05:08:16.975Z,15.50
2022-10-20T05:10:44.326Z,15.93
2022-10-20T05:13:11.746Z,16.63
2022-10-20T05:15:39.091Z,16.67
2022-10-20T05:18:06.391Z,15.80
2022-10-20T05:20:40.968Z,14.90
2022-10-20T05:23:13.304Z,15.30
2022-10-20T05:25:40.721Z,16.23
2022-10-20T05:28:08.045Z,19.17
2022-10-20T05:30:36.464Z,15.30
2022-10-20T05:33:04.412Z,16.95
2022-10-20T05:35:31.954Z,16.10
2022-10-20T05:37:59.199Z,18.27
2022-10-20T05:40:26.454Z,16.48
2022-10-20T05:42:53.763Z,16.98
2022-10-20T05:45:20.973Z,16.23
2022-10-20T05:47:48.397Z,16.08
2022-10-20T05:50:15.813Z,17.25
2022-10-20T05:52:43.108Z,16.20
2022-10-20T05:55:10.512Z,16.38
2022-10-20T05:57:37.908Z,15.25
2022-10-20T06:00:05.702Z,17.58
2022-10-20T06:02:38.999Z,15.25
2022-10-20T06:05:06.421Z,15.55
2022-10-20T06:07:33.869Z,17.50
2022-10-20T06:10:01.128Z,18.08
2022-10-20T06:12:28.554Z,16.42
2022-10-20T06:14:55.816Z,15.98
2022-10-20T06:17:23.817Z,18.75
2022-10-20T06:19:52.445Z,17.80
2022-10-20T06:22:19.784Z,17.63
2022-10-20T06:24:47.545Z,15.48
2022-10-20T06:27:14.936Z,17.88
2022-10-20T06:29:42.277Z,17.77
2022-10-20T06:32:09.542Z,15.57
2022-10-20T06:34:36.807Z,18.05
2022-10-20T06:37:04.101Z,15.45
2022-10-20T06:39:31.443Z,18.88
2022-10-20T06:41:58.677Z,18.15
2022-10-20T06:44:31.975Z,17.90
2022-10-20T06:46:59.168Z,19.00
2022-10-20T06:49:26.443Z,18.25
2022-10-20T06:51:53.692Z,17.45
2022-10-20T06:54:21.061Z,17.38
2022-10-20T06:56:48.338Z,17.70
2022-10-20T06:59:15.644Z,17.20
2022-10-20T07:01:42.940Z,17.77
2022-10-20T07:04:18.860Z,18.63
2022-10-20T07:06:46.795Z,19.25
2022-10-20T07:09:16.233Z,18.55
2022-10-20T07:11:43.535Z,18.83
2022-10-20T07:14:11.527Z,20.40
2022-10-20T07:16:39.133Z,19.70
2022-10-20T07:19:06.997Z,19.70
2022-10-20T07:21:39.204Z,17.30
2022-10-20T07:24:09.218Z,16.83
2022-10-20T07:26:37.856Z,17.70
2022-10-20T07:29:05.236Z,18.52
2022-10-20T07:31:34.003Z,19.02
2022-10-20T07:34:13.582Z,17.37
2022-10-20T07:36:49.973Z,16.52
2022-10-20T07:39:17.281Z,15.80
2022-10-20T07:41:47.198Z,14.70
2022-10-20T07:44:14.726Z,15.85
2022-10-20T07:46:42.007Z,15.85
2022-10-20T07:51:56.601Z,16.30
2022-10-20T07:54:23.919Z,15.88
2022-10-20T07:56:51.223Z,16.42
2022-10-20T07:59:19.298Z,16.23
2022-10-20T08:01:47.145Z,16.13
2022-10-20T08:04:16.774Z,15.88
2022-10-20T08:09:11.344Z,16.40
2022-10-20T08:11:38.696Z,15.73
2022-10-20T08:14:06.277Z,16.35
2022-10-20T08:16:36.173Z,16.90
2022-10-20T08:21:47.643Z,14.82
2022-10-20T08:24:15.169Z,15.52
2022-10-20T08:26:42.681Z,15.23
2022-10-20T08:29:10.216Z,15.93
2022-10-20T08:31:37.562Z,15.93
2022-10-20T08:34:05.796Z,14.60
2022-10-20T08:36:33.272Z,14.85
2022-10-20T08:39:03.618Z,13.77
2022-10-20T08:41:55.378Z,17.10
2022-10-20T08:44:28.000Z,14.85
2022-10-20T08:46:56.499Z,14.68
2022-10-20T08:49:25.763Z,17.67
2022-10-20T08:51:58.846Z,16.20
2022-10-20T08:54:26.397Z,17.17
2022-10-20T08:56:54.161Z,14.88
2022-10-20T08:59:24.613Z,15.82
2022-10-20T09:01:52.346Z,15.95
2022-10-20T09:04:22.056Z,16.58
2022-10-20T09:06:53.223Z,15.85
2022-10-20T09:09:24.014Z,16.30
2022-10-20T09:11:52.267Z,16.10
2022-10-20T09:14:20.413Z,15.68
2022-10-20T09:16:59.769Z,18.25
2022-10-20T09:19:28.515Z,16.55
2022-10-20T09:21:57.788Z,15.50
2022-10-20T09:24:27.399Z,16.42
2022-10-20T09:29:36.755Z,15.57
2022-10-20T09:32:22.445Z,15.68
2022-10-20T09:34:51.568Z,15.80
2022-10-20T09:37:21.785Z,15.98
2022-10-20T09:39:54.911Z,16.60
2022-10-20T09:42:25.432Z,15.30
2022-10-20T09:45:15.874Z,17.30
2022-10-20T09:47:45.119Z,16.77
2022-10-20T09:50:21.074Z,16.75
2022-10-20T09:52:48.873Z,18.35
2022-10-20T09:55:32.718Z,17.08
2022-10-20T09:58:02.133Z,16.60
2022-10-20T10:00:37.698Z,18.77
2022-10-20T10:03:24.023Z,16.40
2022-10-20T10:05:52.812Z,18.67
2022-10-20T10:08:21.095Z,18.60
2022-10-20T10:10:58.880Z,18.05
2022-10-20T10:13:27.600Z,19.52
2022-10-20T10:16:02.572Z,19.20
2022-10-20T10:18:33.290Z,19.05
2022-10-20T10:21:09.169Z,19.63
2022-10-20T10:23:51.981Z,18.52
2022-10-20T10:26:41.675Z,19.60
2022-10-20T10:29:24.346Z,19.58
2022-10-20T10:32:03.914Z,19.48
2022-10-20T10:36:59.885Z,19.35
2022-10-20T10:39:27.440Z,18.60
2022-10-20T10:42:00.813Z,20.50
2022-10-20T10:44:30.981Z,20.13
2022-10-20T10:47:05.394Z,19.67
2022-10-20T10:49:44.484Z,18.10
2022-10-20T10:52:30.704Z,20.23
2022-10-20T10:55:04.329Z,21.13
2022-10-20T10:57:36.691Z,19.50
2022-10-20T11:00:11.639Z,20.88
2022-10-20T11:02:51.258Z,19.83
2022-10-20T11:08:04.822Z,20.90
2022-10-20T11:10:40.773Z,21.55
2022-10-20T11:13:17.468Z,20.77
2022-10-20T11:15:47.729Z,21.65
2022-10-20T11:18:33.770Z,20.33
2022-10-20T11:21:01.104Z,21.27
2022-10-20T11:23:31.570Z,19.90
2022-10-20T11:26:02.107Z,21.52
2022-10-20T11:28:44.297Z,22.75
2022-10-20T11:31:34.912Z,23.80
2022-10-20T11:34:08.716Z,22.85
2022-10-20T11:36:46.209Z,24.15
2022-10-20T11:39:34.001Z,22.40
2022-10-20T11:42:05.039Z,23.15
2022-10-20T11:44:36.034Z,24.67
2022-10-20T11:47:11.493Z,21.10
2022-10-20T11:49:40.427Z,23.90
2022-10-20T11:52:33.302Z,23.70
2022-10-20T11:55:19.181Z,23.25
2022-10-20T11:58:01.271Z,22.88
2022-10-20T12:00:47.233Z,27.05
2022-10-20T12:03:17.655Z,25.00
2022-10-20T12:06:09.069Z,22.45
2022-10-20T12:08:56.529Z,27.13
2022-10-20T12:11:36.025Z,23.77
2022-10-20T12:14:16.489Z,23.98
2022-10-20T12:16:56.111Z,26.05
2022-10-20T12:19:23.533Z,24.83
2022-10-20T12:21:58.710Z,21.83
2022-10-20T12:24:30.802Z,24.67
2022-10-20T12:27:13.337Z,22.58
2022-10-20T12:29:43.698Z,24.30
2022-10-20T12:32:26.030Z,24.55
2022-10-20T12:35:00.643Z,24.27
2022-10-20T12:37:29.948Z,23.42
2022-10-20T12:40:00.393Z,25.40
2022-10-20T12:42:27.898Z,24.92
2022-10-20T12:44:55.604Z,24.70
2022-10-20T12:47:23.099Z,25.33
2022-10-20T12:50:17.344Z,23.48
2022-10-20T12:52:46.672Z,22.63
2022-10-20T12:55:14.045Z,26.33
2022-10-20T12:57:45.384Z,25.85
2022-10-20T13:00:22.528Z,25.52
2022-10-20T13:02:54.694Z,26.05
2022-10-20T13:05:25.044Z,24.75
2022-10-20T13:07:57.869Z,26.20
2022-10-20T13:10:31.212Z,28.17
2022-10-20T13:13:04.835Z,27.17
2022-10-20T13:15:39.877Z,29.75
2022-10-20T13:18:17.907Z,27.98
2022-10-20T13:20:45.468Z,28.38
2022-10-20T13:23:16.867Z,26.23
2022-10-20T13:25:52.074Z,29.58
2022-10-20T13:28:24.434Z,26.25
2022-10-20T13:31:07.142Z,26.05
2022-10-20T13:34:03.992Z,30.55
2022-10-20T13:36:35.295Z,27.60
2022-10-20T13:39:02.835Z,26.40
2022-10-20T13:41:37.663Z,28.13
2022-10-20T13:44:06.294Z,28.15
2022-10-20T13:47:01.312Z,28.92
2022-10-20T13:49:28.872Z,29.50
2022-10-20T13:52:06.044Z,27.77
2022-10-20T13:54:35.844Z,30.08
2022-10-20T13:57:04.397Z,32.03
2022-10-20T13:59:32.135Z,29.83
2022-10-20T14:02:01.505Z,30.73
2022-10-20T14:04:28.952Z,30.85
2022-10-20T14:06:57.079Z,32.70
2022-10-20T14:09:26.929Z,31.23
2022-10-20T14:12:06.409Z,34.13
2022-10-20T14:14:35.954Z,32.58
2022-10-20T14:19:35.066Z,35.83
2022-10-20T14:22:11.269Z,34.42
2022-10-20T14:24:46.052Z,33.58
2022-10-20T14:27:22.155Z,35.53
2022-10-20T14:29:50.121Z,34.17
2022-10-20T14:32:22.416Z,35.00
2022-10-20T14:34:55.952Z,37.95
2022-10-20T14:37:31.485Z,34.08
2022-10-20T14:40:01.093Z,35.10
2022-10-20T14:42:31.056Z,35.22
2022-10-20T14:44:59.326Z,37.13
2022-10-20T14:47:30.575Z,35.20
2022-10-20T14:49:59.861Z,33.80
2022-10-20T14:52:30.531Z,35.72
2022-10-20T14:54:58.153Z,32.63
2022-10-20T14:57:25.514Z,32.42
2022-10-20T14:59:59.220Z,34.38
2022-10-20T15:02:27.891Z,33.25
2022-10-20T15:04:57.599Z,33.23
2022-10-20T15:07:28.086Z,31.88
2022-10-20T15:10:05.019Z,32.10
2022-10-20T15:12:34.612Z,31.67
2022-10-20T15:15:19.569Z,32.50
2022-10-20T15:17:54.200Z,32.03
2022-10-20T15:20:37.585Z,35.45
2022-10-20T15:23:12.262Z,28.92
2022-10-20T15:28:56.720Z,32.50
2022-10-20T15:31:25.251Z,31.52
2022-10-20T15:33:53.311Z,29.27
2022-10-20T15:36:21.940Z,32.42
2022-10-20T15:38:50.261Z,31.88
2022-10-20T15:41:18.947Z,30.63
2022-10-20T15:43:48.078Z,28.58
2022-10-20T15:46:16.093Z,31.50
2022-10-20T15:48:44.006Z,30.88
2022-10-20T15:51:31.293Z,31.05
2022-10-20T15:53:59.181Z,28.85
2022-10-20T15:56:28.999Z,30.30
2022-10-20T15:59:00.481Z,29.50
2022-10-20T16:01:28.235Z,30.65
2022-10-20T16:03:55.944Z,29.85
2022-10-20T16:06:25.831Z,30.70
2022-10-20T16:08:54.302Z,28.38
2022-10-20T16:11:24.395Z,28.17
2022-10-20T16:13:51.739Z,29.75
2022-10-20T16:16:19.970Z,27.58
2022-10-20T16:18:47.329Z,30.25
2022-10-20T16:21:14.741Z,31.95
2022-10-20T16:23:44.750Z,30.30
2022-10-20T16:26:13.745Z,57.20
2022-10-20T16:28:41.358Z,32.70
2022-10-20T16:31:09.868Z,32.20
2022-10-20T16:33:37.472Z,41.20
2022-10-20T16:36:09.299Z,31.92
2022-10-20T16:38:40.046Z,28.77
2022-10-20T16:41:11.727Z,31.05
2022-10-20T16:43:44.706Z,28.67
2022-10-20T16:46:13.232Z,29.58
2022-10-20T16:48:42.769Z,27.85
2022-10-20T16:51:12.062Z,27.60
2022-10-20T16:53:39.843Z,27.77
2022-10-20T16:56:07.634Z,29.10
2022-10-20T16:58:35.150Z,29.20
2022-10-20T17:01:02.619Z,29.25
2022-10-20T17:03:30.697Z,26.10
2022-10-20T17:05:59.250Z,29.10
2022-10-20T17:08:28.151Z,26.23
2022-10-20T17:10:56.584Z,26.05
2022-10-20T17:13:24.060Z,28.20
2022-10-20T17:15:51.404Z,28.40
2022-10-20T17:18:19.115Z,28.63
2022-10-20T17:20:46.526Z,26.80
2022-10-20T17:23:13.910Z,28.33
2022-10-20T17:25:41.284Z,28.20
2022-10-20T17:28:08.599Z,30.10
2022-10-20T17:30:35.954Z,28.02
2022-10-20T17:33:03.296Z,28.92
2022-10-20T17:35:30.585Z,30.65
2022-10-20T17:38:00.922Z,28.50
2022-10-20T17:40:30.925Z,29.90
2022-10-20T17:42:58.464Z,31.88
2022-10-20T17:45:25.842Z,29.25
2022-10-20T17:53:45.687Z,30.92
2022-10-20T17:58:41.746Z,29.73
2022-10-20T18:01:23.517Z,33.40
2022-10-20T18:03:55.589Z,29.77
2022-10-20T18:06:23.581Z,33.75
2022-10-20T18:08:53.899Z,31.45
2022-10-20T18:11:22.744Z,32.47
2022-10-20T18:13:50.386Z,31.63
2022-10-20T18:16:18.717Z,33.30
2022-10-20T18:18:46.135Z,30.95
2022-10-20T18:21:18.191Z,33.03
2022-10-20T18:23:48.638Z,30.95
2022-10-20T18:26:17.413Z,32.30
2022-10-20T18:28:48.143Z,33.30
2022-10-20T18:31:20.554Z,31.55
2022-10-20T18:33:48.722Z,32.08
2022-10-20T18:36:16.908Z,31.23
2022-10-20T18:38:45.448Z,30.55
2022-10-20T18:41:14.922Z,29.35
2022-10-20T18:43:42.265Z,31.73
2022-10-20T18:46:10.569Z,30.50
2022-10-20T18:48:38.776Z,29.75
2022-10-20T18:51:06.828Z,29.48
2022-10-20T18:53:37.497Z,31.65
2022-10-20T18:56:06.275Z,28.00
2022-10-20T18:58:35.222Z,31.38
2022-10-20T19:01:04.080Z,29.23
2022-10-20T19:03:32.794Z,31.00
2022-10-20T19:06:04.775Z,28.35
2022-10-20T19:08:32.278Z,32.17
2022-10-20T19:11:00.591Z,30.60
2022-10-20T19:13:28.796Z,28.83
2022-10-20T19:15:56.757Z,30.95
2022-10-20T19:18:24.728Z,29.98
2022-10-20T19:21:01.330Z,28.48
2022-10-20T19:23:29.060Z,27.90
2022-10-20T19:26:02.853Z,27.95
2022-10-20T19:28:30.905Z,29.38
2022-10-20T19:30:58.328Z,27.13
2022-10-20T19:33:26.444Z,27.63
2022-10-20T19:35:53.940Z,28.48
2022-10-20T19:38:21.563Z,26.75
2022-10-20T19:40:51.138Z,26.42
2022-10-20T19:45:49.082Z,26.05
2022-10-20T19:48:17.322Z,27.02
2022-10-20T19:50:44.645Z,26.23
2022-10-20T19:53:12.158Z,25.75
2022-10-20T19:55:39.435Z,26.73
2022-10-20T19:58:06.986Z,26.65
2022-10-20T20:00:37.921Z,25.55
2022-10-20T20:03:05.660Z,25.95
2022-10-20T20:05:33.125Z,26.08
2022-10-20T20:08:00.606Z,26.25
2022-10-20T20:10:28.000Z,25.77
2022-10-20T20:12:55.384Z,24.98
2022-10-20T20:15:24.105Z,27.55
2022-10-20T20:17:52.595Z,27.05
2022-10-20T20:20:20.215Z,25.35
2022-10-20T20:22:47.672Z,26.52
2022-10-20T20:25:15.344Z,26.83
2022-10-20T20:27:42.982Z,27.92
2022-10-20T20:30:10.673Z,27.25
2022-10-20T20:32:39.355Z,25.33
2022-10-20T20:35:09.172Z,27.30
2022-10-20T20:37:36.793Z,27.30
2022-10-20T20:40:04.766Z,25.63
2022-10-20T20:42:32.279Z,26.75
2022-10-20T20:44:59.711Z,25.35
2022-10-20T20:47:27.473Z,25.52
2022-10-20T20:49:57.835Z,26.13
2022-10-20T20:52:26.144Z,25.67
2022-10-20T20:54:53.564Z,27.50
2022-10-20T20:57:20.906Z,26.20
2022-10-20T20:59:49.073Z,24.10
2022-10-20T21:02:17.117Z,27.63
2022-10-20T21:04:44.602Z,23.60
2022-10-20T21:07:12.630Z,24.30
2022-10-20T21:09:40.116Z,24.95
2022-10-20T21:12:07.612Z,25.50
2022-10-20T21:14:35.216Z,25.17
2022-10-20T21:17:02.732Z,23.20
2022-10-20T21:19:30.365Z,25.80
2022-10-20T21:21:58.088Z,24.92
2022-10-20T21:24:26.702Z,24.42
2022-10-20T21:26:54.525Z,23.70
2022-10-20T21:29:22.024Z,24.42
2022-10-20T21:31:49.447Z,24.63
2022-10-20T21:34:16.891Z,24.35
2022-10-20T21:36:47.176Z,24.45
2022-10-20T21:39:17.568Z,25.35
2022-10-20T21:41:45.745Z,24.45
2022-10-20T21:44:14.938Z,23.50
2022-10-20T21:46:47.589Z,21.83
2022-10-20T21:49:17.188Z,22.45
2022-10-20T21:51:46.245Z,23.40
2022-10-20T21:54:15.169Z,24.35
2022-10-20T21:56:44.511Z,24.27
2022-10-20T21:59:17.409Z,22.67
2022-10-20T22:01:44.972Z,21.98
2022-10-20T22:04:12.678Z,22.33
2022-10-20T22:06:40.572Z,22.13
2022-10-20T22:09:08.391Z,22.35
2022-10-20T22:11:37.512Z,24.70
2022-10-20T22:14:05.236Z,21.88
2022-10-20T22:16:34.260Z,23.05
2022-10-20T22:19:07.249Z,22.40
2022-10-20T22:21:38.545Z,22.38
2022-10-20T22:24:06.474Z,24.60
2022-10-20T22:26:33.973Z,21.48
2022-10-20T22:29:01.951Z,25.50
2022-10-20T22:31:29.539Z,23.17
2022-10-20T22:33:58.292Z,24.25
2022-10-20T22:36:26.116Z,23.83
2022-10-20T22:38:54.739Z,22.85
2022-10-20T22:41:22.179Z,22.13
2022-10-20T22:43:51.914Z,22.58
2022-10-20T22:46:19.676Z,21.33
2022-10-20T22:48:47.244Z,24.23
2022-10-20T22:51:17.688Z,23.30
2022-10-20T22:53:45.196Z,24.02
2022-10-20T22:56:13.806Z,21.83
2022-10-20T22:58:42.010Z,24.90
2022-10-20T23:01:12.770Z,23.10
2022-10-20T23:03:40.532Z,22.85
2022-10-20T23:06:15.342Z,23.73
2022-10-20T23:08:44.569Z,24.38
2022-10-20T23:11:13.325Z,22.80
2022-10-20T23:13:40.725Z,22.92
2022-10-20T23:16:08.321Z,23.65
2022-10-20T23:18:35.745Z,22.88
2022-10-20T23:21:03.082Z,24.73
2022-10-20T23:23:30.568Z,23.92
2022-10-20T23:25:59.681Z,23.13
2022-10-20T23:28:30.319Z,26.67
2022-10-20T23:31:08.320Z,26.20
2022-10-20T23:33:36.260Z,26.45
2022-10-20T23:36:03.801Z,26.85
2022-10-20T23:38:31.085Z,23.60
2022-10-20T23:40:58.457Z,27.52
2022-10-20T23:43:25.832Z,23.88
2022-10-20T23:45:53.120Z,23.52
2022-10-20T23:48:20.480Z,23.63
2022-10-20T23:50:47.829Z,25.25
2022-10-20T23:53:15.277Z,24.45
2022-10-20T23:55:43.169Z,24.00
2022-10-20T23:58:11.071Z,25.40
